Strawberry, Arizona
Current Conditions -  °F | °C
As of 5:15 PM on Wednesday 26 Nov 2014 (Local Time) from KPAN Reporting Station
Clear Clear  
Wind Chill: 63°   Ceiling: Unl
Heat Index: 63°   Visibility: 10mi
Dew Point: 19°   Wind: 8mph
Humidity: 19%   Direction: 30°NNE
Pressure: 30.35"   Gusts: NA
Location:  34.3514°N, 111.487°W
Report Text: KPAN 270015Z AUTO 03007KT 10SM CLR 17/M07 A3035 RMK AO2
Loading
Personal Weather Stations






























Interactive Weather Map New forecast layout! Learn more

10-Day Weather Forecast

Advertisements
Track Severe Weather on mobile